Time;durP1;ratioP1;P1;durP2;ratioP2;P2;SDS_P1;SDS_P2;PMS_P1;PMS_P2;Temp;Humidity;BMP_temperature;BMP_pressure;BME280_temperature;BME280_humidity;BME280_pressure;Samples;Min_cycle;Max_cycle;Signal;HPM_P1;HPM_P2
2022/02/24 00:01:11;;;;;;;4.57;1.43;;;;;;;4.79;73.98;101060.56;5053808;28;20247;-78
2022/02/24 00:03:39;;;;;;;3.47;1.53;;;;;;;4.80;73.74;101056.25;5053199;28;20206;-77
2022/02/24 00:06:05;;;;;;;4.23;1.27;;;;;;;4.83;73.66;101052.00;5054398;28;20205;-77
2022/02/24 00:08:32;;;;;;;4.97;1.60;;;;;;;4.88;73.44;101041.72;5055660;28;20201;-78
2022/02/24 00:10:58;;;;;;;3.33;1.50;;;;;;;4.96;73.14;101059.09;5053869;28;20219;-78
2022/02/24 00:13:25;;;;;;;2.73;1.67;;;;;;;5.07;72.41;101072.16;5053833;28;20197;-77
2022/02/24 00:15:51;;;;;;;3.00;1.20;;;;;;;5.11;72.00;101068.78;5052946;28;20200;-78
2022/02/24 00:18:18;;;;;;;3.83;1.60;;;;;;;5.22;70.71;101092.22;5053501;28;20290;-77
2022/02/24 00:20:48;;;;;;;3.83;1.90;;;;;;;5.31;70.96;101087.16;5053786;28;20251;-78
2022/02/24 00:23:14;;;;;;;3.43;1.67;;;;;;;5.38;69.64;101103.63;5053075;28;20704;-78
2022/02/24 00:25:41;;;;;;;3.90;1.50;;;;;;;5.43;70.20;101116.63;5053850;28;20234;-77
2022/02/24 00:28:07;;;;;;;3.30;1.20;;;;;;;5.50;69.34;101128.81;5054084;28;20205;-78
2022/02/24 00:30:33;;;;;;;3.60;1.13;;;;;;;5.58;69.23;101132.38;5053710;28;20204;-77
2022/02/24 00:33:00;;;;;;;3.23;1.47;;;;;;;5.64;68.43;101134.19;5049065;28;20227;-78
2022/02/24 00:35:26;;;;;;;2.87;1.70;;;;;;;5.70;67.96;101139.44;5054769;28;20554;-78
2022/02/24 00:37:54;;;;;;;4.60;1.23;;;;;;;5.75;68.33;101155.91;5053663;28;20652;-78
2022/02/24 00:40:21;;;;;;;5.20;1.27;;;;;;;5.80;68.45;101156.81;5054761;28;20776;-78
2022/02/24 00:42:47;;;;;;;3.77;1.50;;;;;;;5.77;68.57;101156.78;5054337;28;20274;-78
2022/02/24 00:45:14;;;;;;;4.03;1.40;;;;;;;5.81;68.13;101157.69;5054600;28;20715;-78
2022/02/24 00:47:40;;;;;;;3.53;1.50;;;;;;;5.85;66.81;101178.47;5054494;28;20203;-78
2022/02/24 00:50:07;;;;;;;4.77;1.30;;;;;;;5.91;68.33;101160.41;5054430;28;20569;-78
2022/02/24 00:52:33;;;;;;;2.87;1.57;;;;;;;5.96;67.29;101166.53;5054092;28;20234;-78
2022/02/24 00:55:01;;;;;;;3.83;1.47;;;;;;;6.06;67.83;101174.44;5054184;28;20216;-78
2022/02/24 00:57:27;;;;;;;3.63;1.63;;;;;;;6.00;67.23;101172.63;5054168;28;20224;-77
2022/02/24 00:59:54;;;;;;;2.93;1.53;;;;;;;6.04;67.60;101170.94;5053135;28;20671;-79
2022/02/24 01:02:20;;;;;;;5.47;2.07;;;;;;;6.04;67.10;101169.22;5053907;28;20618;-79
2022/02/24 01:04:47;;;;;;;5.50;1.70;;;;;;;6.06;68.43;101143.31;5054086;28;20294;-78
2022/02/24 01:07:13;;;;;;;3.30;1.70;;;;;;;6.07;69.42;101113.97;5054632;28;20253;-78
2022/02/24 01:09:39;;;;;;;3.20;1.30;;;;;;;5.97;69.29;101100.06;5054595;28;20741;-77
2022/02/24 01:12:08;;;;;;;5.27;1.87;;;;;;;5.94;68.62;101105.16;5054143;28;20756;-78
2022/02/24 01:14:34;;;;;;;2.80;1.40;;;;;;;5.89;69.56;101093.91;5054322;28;20720;-78
2022/02/24 01:17:01;;;;;;;4.70;1.40;;;;;;;5.98;69.16;101088.81;5056459;28;20262;-78
2022/02/24 01:19:27;;;;;;;4.43;1.43;;;;;;;5.84;70.45;101070.50;5058946;28;20274;-79
2022/02/24 01:21:53;;;;;;;3.83;1.70;;;;;;;5.68;70.74;101032.34;5060700;28;20232;-78
2022/02/24 01:24:20;;;;;;;4.50;1.43;;;;;;;5.70;70.68;101028.91;5058845;28;20229;-79
2022/02/24 01:26:46;;;;;;;5.23;1.80;;;;;;;5.63;71.67;101034.91;5056075;28;20216;-79
2022/02/24 01:29:14;;;;;;;3.63;1.37;;;;;;;5.70;72.18;101000.41;5055172;28;20202;-78
2022/02/24 01:31:40;;;;;;;3.77;1.70;;;;;;;5.66;71.22;101001.25;5053987;28;20228;-77
2022/02/24 01:34:07;;;;;;;4.20;1.70;;;;;;;5.67;70.32;100990.06;5047655;28;20215;-78
2022/02/24 01:36:34;;;;;;;4.80;1.40;;;;;;;5.77;68.66;101037.63;5052105;28;20746;-79
2022/02/24 01:39:00;;;;;;;4.07;1.47;;;;;;;5.87;70.03;101048.97;5052893;28;20278;-78
2022/02/24 01:41:26;;;;;;;5.13;1.37;;;;;;;5.88;72.32;100978.16;5054138;28;20233;-78
2022/02/24 01:43:53;;;;;;;5.93;1.70;;;;;;;5.93;70.20;100994.63;5053647;28;20214;-78
2022/02/24 01:46:21;;;;;;;2.90;1.43;;;;;;;5.87;72.48;100976.44;5054470;28;20212;-78
2022/02/24 01:48:47;;;;;;;3.57;1.80;;;;;;;5.84;70.32;100973.78;5053842;28;20262;-78
2022/02/24 01:51:14;;;;;;;4.83;1.80;;;;;;;5.85;72.24;100957.41;5054151;28;20206;-78
2022/02/24 01:53:41;;;;;;;2.73;1.33;;;;;;;5.75;70.10;100952.13;5054128;28;20239;-77
2022/02/24 01:56:07;;;;;;;9.00;1.90;;;;;;;5.89;69.63;100985.06;5053535;28;20212;-78
2022/02/24 01:58:34;;;;;;;3.30;1.30;;;;;;;5.98;69.02;101003.31;5053641;28;20236;-78
2022/02/24 02:01:00;;;;;;;4.07;1.50;;;;;;;6.07;67.06;101037.09;5053754;28;20207;-78
2022/02/24 02:03:28;;;;;;;2.27;1.40;;;;;;;6.15;67.00;101039.75;5053595;28;20326;-78
2022/02/24 02:05:56;;;;;;;5.03;1.40;;;;;;;6.20;68.34;101034.59;5053804;28;20263;-78
2022/02/24 02:08:23;;;;;;;3.67;1.43;;;;;;;6.23;66.16;101057.97;5054439;28;20217;-78
2022/02/24 02:10:49;;;;;;;2.83;1.40;;;;;;;6.26;66.62;101056.25;5053547;28;20208;-79
2022/02/24 02:13:15;;;;;;;3.97;1.60;;;;;;;6.34;66.31;101054.63;5052716;28;20797;-79
2022/02/24 02:15:42;;;;;;;3.77;1.47;;;;;;;6.36;66.24;101047.72;5053665;28;20622;-78
2022/02/24 02:18:08;;;;;;;1.90;1.23;;;;;;;6.43;65.71;101078.88;5053215;28;20232;-79
2022/02/24 02:20:38;;;;;;;3.93;1.20;;;;;;;6.50;65.80;101065.09;5054004;28;20256;-78
2022/02/24 02:23:05;;;;;;;4.70;1.70;;;;;;;6.50;65.17;101071.16;5052904;28;20912;-78
2022/02/24 02:25:31;;;;;;;3.93;1.63;;;;;;;6.52;63.84;101078.94;5053858;28;20221;-78
2022/02/24 02:27:57;;;;;;;2.87;1.63;;;;;;;6.60;65.11;101092.88;5053569;28;20270;-78
2022/02/24 02:30:24;;;;;;;2.20;1.60;;;;;;;6.59;64.30;101083.31;5053879;28;20209;-77
2022/02/24 02:32:50;;;;;;;3.23;1.50;;;;;;;6.60;64.77;101090.28;5047995;28;20236;-78
2022/02/24 02:35:17;;;;;;;5.77;1.70;;;;;;;6.62;63.66;101092.84;5053026;28;20208;-78
2022/02/24 02:37:44;;;;;;;6.23;1.90;;;;;;;6.65;64.82;101082.50;5053831;28;20228;-78
2022/02/24 02:40:12;;;;;;;3.37;1.70;;;;;;;6.67;64.59;101076.47;5057532;28;20712;-78
2022/02/24 02:42:39;;;;;;;3.83;1.63;;;;;;;6.68;63.73;101093.78;5057537;28;20270;-78
2022/02/24 02:45:07;;;;;;;4.47;2.00;;;;;;;6.68;63.97;101088.59;5057151;28;20198;-78
2022/02/24 02:47:34;;;;;;;3.03;1.47;;;;;;;6.69;64.45;101081.69;5055980;28;20310;-78
2022/02/24 02:50:00;;;;;;;3.87;1.57;;;;;;;6.68;64.69;101060.06;5056775;28;20634;-78
2022/02/24 02:52:27;;;;;;;3.37;1.73;;;;;;;6.73;64.64;101063.53;5056725;28;20232;-78
2022/02/24 02:54:59;;;;;;;3.20;1.47;;;;;;;6.74;65.04;101059.25;5056673;28;20212;-78
2022/02/24 02:57:25;;;;;;;2.80;1.57;;;;;;;6.69;64.51;101051.41;5056551;28;20281;-78
2022/02/24 02:59:52;;;;;;;1.90;1.33;;;;;;;6.72;63.84;101060.97;5055767;28;20266;-78
2022/02/24 03:02:18;;;;;;;3.33;1.40;;;;;;;6.73;63.73;101060.09;5056073;28;20259;-77
2022/02/24 03:04:49;;;;;;;3.03;1.50;;;;;;;6.72;64.85;101043.66;5055874;28;20948;-77
2022/02/24 03:07:16;;;;;;;3.63;1.30;;;;;;;6.74;64.31;101036.75;5058899;28;20226;-78
2022/02/24 03:09:42;;;;;;;4.53;1.67;;;;;;;6.75;63.63;101053.19;5057944;28;20250;-78
2022/02/24 03:12:10;;;;;;;3.47;1.47;;;;;;;6.76;63.61;101037.63;5056428;28;20229;-78
2022/02/24 03:14:38;;;;;;;3.13;1.60;;;;;;;6.82;64.22;101048.88;5055671;28;20212;-78
2022/02/24 03:17:04;;;;;;;1.83;1.20;;;;;;;6.90;62.30;101062.81;5056191;28;20202;-78
2022/02/24 03:19:31;;;;;;;4.87;2.07;;;;;;;6.93;64.18;101049.81;5056078;28;20233;-78
2022/02/24 03:21:57;;;;;;;3.60;1.93;;;;;;;6.96;62.38;101070.63;5055836;28;20286;-78
2022/02/24 03:24:24;;;;;;;2.50;1.30;;;;;;;6.97;63.80;101056.78;5056037;28;20211;-78
2022/02/24 03:26:50;;;;;;;5.03;1.90;;;;;;;6.94;63.77;101047.25;5056120;28;20209;-77
2022/02/24 03:29:18;;;;;;;2.03;1.50;;;;;;;6.97;64.19;101026.47;5056038;28;20286;-78
2022/02/24 03:31:45;;;;;;;4.17;1.40;;;;;;;6.95;64.87;101015.22;5054731;28;20225;-78
2022/02/24 03:34:12;;;;;;;3.67;1.60;;;;;;;6.89;64.21;101010.00;5051094;28;20212;-78
2022/02/24 03:36:38;;;;;;;4.43;1.57;;;;;;;6.87;64.49;100987.50;5055323;28;20208;-78
2022/02/24 03:39:05;;;;;;;4.27;1.40;;;;;;;6.87;64.19;101006.53;5055176;28;20279;-78
2022/02/24 03:41:32;;;;;;;3.53;1.83;;;;;;;6.97;63.32;101030.81;5055529;28;20244;-78
2022/02/24 03:43:59;;;;;;;2.87;1.20;;;;;;;6.99;63.87;101029.09;5054918;28;20209;-79
2022/02/24 03:46:26;;;;;;;2.77;1.43;;;;;;;6.95;64.20;101015.22;5055508;28;20200;-76
2022/02/24 03:48:53;;;;;;;4.73;1.80;;;;;;;6.89;63.90;101007.41;5054581;28;20210;-77
2022/02/24 03:51:19;;;;;;;4.53;1.90;;;;;;;6.89;64.35;101004.81;5054129;28;20792;-77
2022/02/24 03:53:46;;;;;;;2.73;1.40;;;;;;;6.90;64.60;101003.97;5054781;28;20257;-78
2022/02/24 03:56:12;;;;;;;2.37;1.40;;;;;;;6.88;63.82;101002.25;5055166;28;20729;-79
2022/02/24 03:58:39;;;;;;;2.60;1.57;;;;;;;6.93;64.75;100996.19;5054863;28;20286;-77
2022/02/24 04:01:05;;;;;;;3.27;1.80;;;;;;;6.87;64.51;100977.13;5055221;28;20254;-78
2022/02/24 04:03:33;;;;;;;4.07;1.70;;;;;;;6.90;66.11;100969.38;5053669;28;20234;-79
2022/02/24 04:06:00;;;;;;;2.23;1.40;;;;;;;6.93;66.29;100935.63;5054731;28;20201;-78
2022/02/24 04:08:26;;;;;;;4.00;1.77;;;;;;;6.91;65.60;100955.53;5055258;28;20262;-78
2022/02/24 04:10:53;;;;;;;3.17;1.50;;;;;;;6.89;68.48;100901.00;5055204;28;20216;-78
2022/02/24 04:13:19;;;;;;;4.27;1.80;;;;;;;6.90;68.38;100879.41;5054386;28;20228;-78
2022/02/24 04:15:47;;;;;;;2.93;1.67;;;;;;;6.76;68.19;100873.31;5054873;28;20584;-78
2022/02/24 04:18:13;;;;;;;4.30;1.47;;;;;;;6.78;67.59;100891.47;5054655;28;20268;-78
2022/02/24 04:20:41;;;;;;;2.13;1.43;;;;;;;6.77;68.14;100875.03;5055248;28;20609;-78
2022/02/24 04:23:07;;;;;;;3.03;1.93;;;;;;;6.76;67.40;100881.97;5054480;28;20231;-78
2022/02/24 04:25:34;;;;;;;6.27;1.50;;;;;;;6.86;67.69;100880.25;5054820;28;20231;-78
2022/02/24 04:28:00;;;;;;;3.07;1.53;;;;;;;6.87;67.04;100896.69;5054669;28;20227;-78
2022/02/24 04:30:26;;;;;;;3.17;1.87;;;;;;;6.97;66.49;100901.91;5055097;28;20235;-78
2022/02/24 04:32:53;;;;;;;1.73;1.40;;;;;;;6.99;64.98;100920.09;5048984;28;20282;-77
2022/02/24 04:35:19;;;;;;;7.57;1.87;;;;;;;7.10;64.73;100956.47;5053321;28;20253;-77
2022/02/24 04:37:47;;;;;;;3.47;1.50;;;;;;;7.07;64.63;100949.53;5053252;28;20262;-77
2022/02/24 04:40:15;;;;;;;4.00;1.47;;;;;;;7.13;65.18;100948.69;5054515;28;20267;-78
2022/02/24 04:42:42;;;;;;;4.83;1.80;;;;;;;7.10;65.50;100910.63;5054669;28;20265;-78
2022/02/24 04:45:08;;;;;;;3.93;1.53;;;;;;;7.16;65.25;100949.56;5054750;28;20208;-78
2022/02/24 04:47:35;;;;;;;4.97;1.63;;;;;;;7.11;64.87;100932.25;5054288;28;20211;-77
2022/02/24 04:50:03;;;;;;;3.60;2.00;;;;;;;7.12;63.66;100945.22;5054359;28;20208;-78
2022/02/24 04:52:30;;;;;;;3.43;1.50;;;;;;;7.15;64.67;100945.25;5054200;28;20221;-78
2022/02/24 04:54:58;;;;;;;4.43;1.83;;;;;;;7.19;63.50;100958.22;5053945;28;20266;-77
2022/02/24 04:57:24;;;;;;;1.30;1.10;;;;;;;7.23;65.23;100947.00;5054405;28;20209;-78
2022/02/24 04:59:50;;;;;;;2.30;1.57;;;;;;;7.22;64.56;100943.53;5053667;28;20229;-78
2022/02/24 05:02:17;;;;;;;3.93;2.00;;;;;;;7.21;64.70;100922.75;5053841;28;20237;-78
2022/02/24 05:04:43;;;;;;;2.67;1.70;;;;;;;7.20;63.94;100942.66;5053611;28;20213;-78
2022/02/24 05:07:09;;;;;;;3.03;1.40;;;;;;;7.23;63.73;100940.06;5053960;28;20680;-78
2022/02/24 05:09:36;;;;;;;3.90;1.77;;;;;;;7.26;64.32;100936.63;5054269;28;20748;-79
2022/02/24 05:12:04;;;;;;;2.63;1.40;;;;;;;7.28;63.80;100934.91;5054389;28;20231;-78
2022/02/24 05:14:31;;;;;;;3.20;1.70;;;;;;;7.35;63.17;100957.41;5054531;28;20270;-78
2022/02/24 05:16:58;;;;;;;3.20;1.77;;;;;;;7.35;64.37;100953.09;5053585;28;20212;-79
2022/02/24 05:19:24;;;;;;;2.20;1.37;;;;;;;7.34;65.10;100927.13;5053585;28;20641;-79
2022/02/24 05:22:15;;;;;;;2.73;1.67;;;;;;;7.29;65.21;100915.84;5055347;28;20228;-77
2022/02/24 05:24:41;;;;;;;2.87;2.00;;;;;;;7.20;63.97;100895.06;5042414;28;20266;-78
2022/02/24 05:27:09;;;;;;;3.77;2.00;;;;;;;7.23;64.16;100924.47;5054575;28;20262;-78
2022/02/24 05:29:35;;;;;;;3.53;1.60;;;;;;;7.26;63.66;100926.25;5053714;28;20282;-78
2022/02/24 05:32:02;;;;;;;2.37;1.77;;;;;;;7.29;63.69;100934.88;5050842;28;20232;-78
2022/02/24 05:34:29;;;;;;;3.60;2.03;;;;;;;7.26;64.34;100926.25;5064780;23;20741;-80
2022/02/24 05:36:56;;;;;;;6.83;1.87;;;;;;;7.34;64.77;100922.78;5052212;28;20211;-78
2022/02/24 05:39:22;;;;;;;6.80;1.90;;;;;;;7.25;63.37;100914.97;5052393;28;20232;-77
2022/02/24 05:41:49;;;;;;;6.10;2.40;;;;;;;7.30;64.39;100917.59;5053044;28;20208;-80
2022/02/24 05:44:17;;;;;;;4.20;1.70;;;;;;;7.29;63.79;100914.09;5066983;28;20270;-79
2022/02/24 05:46:44;;;;;;;3.83;1.87;;;;;;;7.30;64.09;100899.41;5073224;28;20204;-78
2022/02/24 05:49:11;;;;;;;3.97;1.93;;;;;;;7.33;64.06;100900.28;5072669;28;20208;-79
2022/02/24 05:51:38;;;;;;;2.40;2.10;;;;;;;7.38;65.06;100873.47;5072682;28;20258;-79
2022/02/24 05:54:05;;;;;;;6.67;2.00;;;;;;;7.38;65.70;100863.94;5072159;28;20232;-79
2022/02/24 05:56:31;;;;;;;4.17;2.07;;;;;;;7.39;64.50;100886.44;5072572;28;20262;-79
2022/02/24 05:58:57;;;;;;;6.33;2.03;;;;;;;7.39;64.13;100894.22;5072146;28;20289;-79
2022/02/24 06:01:25;;;;;;;4.90;1.90;;;;;;;7.39;64.73;100891.63;5073160;28;20213;-79
2022/02/24 06:03:52;;;;;;;3.80;2.00;;;;;;;7.35;64.61;100877.78;5064499;28;20228;-79
2022/02/24 06:06:19;;;;;;;5.00;2.30;;;;;;;7.41;64.32;100876.03;5064152;28;20754;-79
2022/02/24 06:08:46;;;;;;;2.90;1.80;;;;;;;7.37;64.67;100893.34;5072277;28;20201;-78
2022/02/24 06:11:12;;;;;;;2.30;1.70;;;;;;;7.41;64.34;100892.47;5073098;28;20212;-79
2022/02/24 06:13:38;;;;;;;5.37;1.97;;;;;;;7.41;64.56;100892.47;5074710;28;20580;-80
2022/02/24 06:16:05;;;;;;;3.27;1.50;;;;;;;7.39;64.57;100893.34;5076441;28;20259;-80
2022/02/24 06:18:33;;;;;;;4.40;1.90;;;;;;;7.39;65.22;100889.03;5076885;28;20228;-78
2022/02/24 06:21:00;;;;;;;3.40;1.77;;;;;;;7.36;64.18;100889.91;5077378;28;20208;-79
2022/02/24 06:23:27;;;;;;;5.70;2.33;;;;;;;7.25;65.03;100894.19;5077184;28;20258;-80
2022/02/24 06:25:53;;;;;;;2.30;2.00;;;;;;;7.31;64.20;100877.75;5077406;28;20269;-80
2022/02/24 06:28:20;;;;;;;2.13;1.80;;;;;;;7.36;64.24;100870.84;5076702;28;20303;-80
2022/02/24 06:30:46;;;;;;;4.30;2.10;;;;;;;7.38;65.26;100874.31;5076268;28;20208;-78
2022/02/24 06:33:12;;;;;;;3.50;2.07;;;;;;;7.40;64.67;100866.53;5070209;28;20236;-77
2022/02/24 06:35:40;;;;;;;3.63;2.23;;;;;;;7.38;66.10;100848.34;5080164;28;20200;-79
2022/02/24 06:38:07;;;;;;;2.93;2.60;;;;;;;7.40;64.79;100861.34;5090799;28;20201;-77
2022/02/24 06:40:33;;;;;;;2.23;1.90;;;;;;;7.42;65.24;100841.44;5090125;28;20236;-76
2022/02/24 06:43:00;;;;;;;5.57;2.07;;;;;;;7.40;64.17;100863.94;5076558;28;20261;-78
2022/02/24 06:45:26;;;;;;;2.77;2.00;;;;;;;7.41;65.36;100847.47;5075694;28;20273;-79
2022/02/24 06:47:53;;;;;;;3.53;2.20;;;;;;;7.40;65.22;100833.63;5075329;28;20211;-78
2022/02/24 06:50:19;;;;;;;4.53;2.20;;;;;;;7.39;65.37;100836.22;5075026;28;20210;-78
2022/02/24 06:52:47;;;;;;;4.17;2.30;;;;;;;7.42;65.99;100818.06;5075184;28;20211;-78
2022/02/24 06:55:13;;;;;;;2.43;1.97;;;;;;;7.40;66.17;100820.66;5075261;28;20209;-79
2022/02/24 06:57:45;;;;;;;7.33;2.53;;;;;;;7.44;65.96;100822.38;5075272;28;20635;-79
2022/02/24 07:00:12;;;;;;;4.00;2.20;;;;;;;7.50;66.13;100803.34;5073675;28;20231;-79
2022/02/24 07:02:38;;;;;;;3.27;1.97;;;;;;;7.51;65.84;100811.13;5055606;28;20548;-80
2022/02/24 07:05:05;;;;;;;4.93;1.97;;;;;;;7.54;66.25;100794.66;5064143;28;20201;-79
2022/02/24 07:07:34;;;;;;;3.77;1.73;;;;;;;7.51;66.23;100790.34;5075227;28;20208;-79
2022/02/24 07:10:02;;;;;;;2.40;1.90;;;;;;;7.50;67.80;100765.22;5052573;28;20205;-79
2022/02/24 07:12:29;;;;;;;3.20;1.73;;;;;;;7.43;66.72;100760.03;5043708;28;20205;-80
2022/02/24 07:14:55;;;;;;;5.40;2.03;;;;;;;7.42;66.32;100779.97;5046375;28;20312;-79
2022/02/24 07:17:21;;;;;;;3.17;1.80;;;;;;;7.46;69.17;100752.25;5044720;28;20264;-78
2022/02/24 07:19:48;;;;;;;4.50;2.43;;;;;;;7.42;66.62;100768.72;5047050;28;20220;-79
2022/02/24 07:22:14;;;;;;;6.93;2.00;;;;;;;7.51;66.77;100784.28;5044361;28;20209;-80
2022/02/24 07:24:41;;;;;;;7.17;2.27;;;;;;;7.51;66.47;100774.78;5045159;28;20230;-79
2022/02/24 07:27:09;;;;;;;4.63;1.93;;;;;;;7.45;66.99;100763.50;5044906;28;20204;-79
2022/02/24 07:29:35;;;;;;;4.60;1.80;;;;;;;7.51;67.60;100740.13;5046757;28;20637;-80
2022/02/24 07:32:01;;;;;;;5.53;2.47;;;;;;;7.51;66.98;100738.41;5044473;28;20225;-80
2022/02/24 07:34:29;;;;;;;2.97;1.77;;;;;;;7.52;66.58;100763.50;5047615;28;20271;-79
2022/02/24 07:36:56;;;;;;;4.63;1.90;;;;;;;7.58;66.11;100775.63;5048506;28;20248;-77
2022/02/24 07:39:23;;;;;;;6.00;2.00;;;;;;;7.64;66.57;100767.81;5045459;28;20220;-80
2022/02/24 07:41:49;;;;;;;4.53;2.13;;;;;;;7.62;65.68;100774.75;5043934;28;20697;-80
2022/02/24 07:44:17;;;;;;;4.90;1.60;;;;;;;7.67;66.61;100759.13;5046761;28;20221;-80
2022/02/24 07:46:43;;;;;;;4.30;1.90;;;;;;;7.61;66.30;100759.16;5044612;28;20731;-81
2022/02/24 07:49:10;;;;;;;3.30;1.47;;;;;;;7.61;65.56;100759.16;5046757;28;20584;-80
2022/02/24 07:51:36;;;;;;;3.47;1.90;;;;;;;7.69;66.60;100755.69;5044207;28;20209;-79
2022/02/24 07:54:03;;;;;;;2.93;1.97;;;;;;;7.73;65.74;100746.13;5043445;28;20229;-80
2022/02/24 07:56:30;;;;;;;4.90;2.10;;;;;;;7.79;66.89;100740.06;5044952;28;20623;-81
2022/02/24 07:58:56;;;;;;;2.73;2.07;;;;;;;7.83;66.04;100750.47;5045781;28;20237;-81
2022/02/24 08:01:24;;;;;;;4.87;2.10;;;;;;;7.82;65.71;100764.31;5045779;28;20201;-78
2022/02/24 08:03:50;;;;;;;3.20;2.00;;;;;;;7.80;65.10;100760.00;5053197;28;20217;-77
2022/02/24 08:06:17;;;;;;;3.93;1.93;;;;;;;7.83;65.19;100760.84;5050768;28;20708;-77
2022/02/24 08:08:43;;;;;;;7.30;2.13;;;;;;;7.97;65.71;100742.63;5048861;28;20226;-78
2022/02/24 08:11:09;;;;;;;3.03;1.50;;;;;;;7.92;64.94;100770.34;5048497;28;20202;-82
2022/02/24 08:13:36;;;;;;;3.90;1.70;;;;;;;7.81;64.88;100754.78;5045958;28;20721;-81
2022/02/24 08:16:02;;;;;;;5.77;2.10;;;;;;;7.93;65.43;100753.91;5047971;28;20750;-80
2022/02/24 08:18:30;;;;;;;2.77;1.63;;;;;;;8.01;65.15;100752.13;5052034;28;20255;-79
2022/02/24 08:20:56;;;;;;;3.70;1.60;;;;;;;7.96;65.57;100759.06;5049244;28;20226;-80
2022/02/24 08:23:23;;;;;;;2.57;1.70;;;;;;;7.98;65.08;100751.28;5046025;28;20221;-80
2022/02/24 08:25:49;;;;;;;4.90;1.93;;;;;;;8.03;66.15;100728.75;5048828;28;20250;-79
2022/02/24 08:28:15;;;;;;;3.97;1.73;;;;;;;8.04;65.40;100715.72;5047762;28;20199;-80
2022/02/24 08:30:42;;;;;;;3.87;1.67;;;;;;;8.06;64.99;100732.16;5045913;28;20670;-81
2022/02/24 08:33:08;;;;;;;4.20;1.70;;;;;;;8.05;64.45;100751.25;5045935;28;20234;-78
2022/02/24 08:35:36;;;;;;;2.63;1.80;;;;;;;8.12;64.10;100739.09;5048491;28;20204;-81
2022/02/24 08:38:03;;;;;;;2.27;1.57;;;;;;;8.18;64.06;100722.59;5050122;28;20230;-81
2022/02/24 08:40:29;;;;;;;2.60;1.40;;;;;;;8.23;64.25;100720.84;5060060;28;20221;-80
2022/02/24 08:42:56;;;;;;;3.80;1.70;;;;;;;8.18;63.75;100722.59;5051095;28;20213;-80
2022/02/24 08:45:23;;;;;;;4.97;1.80;;;;;;;8.22;64.20;100719.09;5050025;28;20244;-80
2022/02/24 08:47:50;;;;;;;3.40;1.40;;;;;;;8.33;64.39;100688.72;5045886;28;20747;-81
2022/02/24 08:50:17;;;;;;;2.63;1.50;;;;;;;8.42;64.17;100698.22;5049262;28;20196;-82
2022/02/24 08:52:45;;;;;;;4.73;1.60;;;;;;;8.31;64.04;100700.88;5046156;28;20202;-82
2022/02/24 08:55:12;;;;;;;3.37;1.67;;;;;;;8.33;63.06;100723.38;5050026;28;20194;-81
2022/02/24 08:57:38;;;;;;;2.87;1.30;;;;;;;8.37;63.45;100718.19;5053105;28;20263;-80
2022/02/24 09:00:07;;;;;;;4.77;1.60;;;;;;;8.38;63.29;100725.09;5049742;28;20226;-82
2022/02/24 09:02:34;;;;;;;4.30;1.57;;;;;;;8.46;62.93;100710.34;5045424;28;20241;-79
2022/02/24 09:05:01;;;;;;;3.13;1.57;;;;;;;8.43;63.01;100725.97;5049638;28;20193;-80
2022/02/24 09:07:27;;;;;;;6.33;2.00;;;;;;;8.41;63.19;100712.97;5051843;28;20213;-81
2022/02/24 09:09:55;;;;;;;2.20;1.63;;;;;;;8.46;63.72;100695.63;5055140;28;20194;-81
2022/02/24 09:12:21;;;;;;;2.73;1.60;;;;;;;8.52;63.60;100674.75;5054555;28;20621;-79
2022/02/24 09:14:47;;;;;;;3.10;1.60;;;;;;;8.44;62.90;100688.69;5049385;28;20713;-80
2022/02/24 09:17:14;;;;;;;2.60;1.50;;;;;;;8.50;62.26;100693.84;5043593;28;20568;-80
2022/02/24 09:19:42;;;;;;;4.17;2.20;;;;;;;8.62;63.07;100685.97;5050069;28;20500;-81
2022/02/24 09:22:09;;;;;;;1.90;1.30;;;;;;;8.69;62.94;100684.19;5047433;28;20197;-82
2022/02/24 09:24:36;;;;;;;2.57;1.67;;;;;;;8.80;62.92;100686.69;5047803;28;20226;-82
2022/02/24 09:27:04;;;;;;;2.77;1.40;;;;;;;8.75;62.30;100695.41;5045634;28;20208;-80
2022/02/24 09:29:31;;;;;;;2.43;1.60;;;;;;;8.86;62.81;100677.13;5049129;28;20223;-81
2022/02/24 09:31:57;;;;;;;2.93;1.80;;;;;;;8.82;61.95;100691.03;5045586;28;20198;-80
2022/02/24 09:34:23;;;;;;;2.97;1.53;;;;;;;8.88;61.72;100679.69;5043991;28;20225;-82
2022/02/24 09:36:50;;;;;;;4.63;1.37;;;;;;;8.94;61.74;100682.25;5046029;28;20204;-81
2022/02/24 09:39:16;;;;;;;4.03;1.43;;;;;;;8.92;61.74;100691.81;5050059;28;20231;-82
2022/02/24 09:41:45;;;;;;;4.47;2.10;;;;;;;8.97;61.32;100666.59;5050649;28;20208;-81
2022/02/24 09:44:12;;;;;;;3.57;1.83;;;;;;;8.97;61.25;100668.34;5045195;28;20222;-80
2022/02/24 09:46:41;;;;;;;2.63;1.50;;;;;;;9.09;62.53;100670.84;5045304;28;20201;-83
2022/02/24 09:49:09;;;;;;;2.03;1.67;;;;;;;9.08;61.13;100666.53;5045732;28;20198;-82
2022/02/24 09:51:36;;;;;;;2.43;1.50;;;;;;;9.16;61.56;100667.31;5044603;28;20202;-82
2022/02/24 09:54:02;;;;;;;2.93;1.70;;;;;;;9.30;62.44;100641.13;5038876;28;20226;-80
2022/02/24 09:56:29;;;;;;;4.83;1.53;;;;;;;9.23;61.36;100671.56;5035117;28;20210;-80
2022/02/24 09:58:57;;;;;;;2.13;1.40;;;;;;;9.15;61.71;100675.97;5035751;28;20220;-79
2022/02/24 10:01:25;;;;;;;2.47;1.50;;;;;;;9.21;61.39;100668.09;5036313;28;20710;-80
2022/02/24 10:03:56;;;;;;;2.10;1.27;;;;;;;9.10;61.53;100647.38;5035633;28;20225;-79
2022/02/24 10:06:33;;;;;;;5.37;1.67;;;;;;;9.24;61.84;100628.16;5034677;28;20260;-79
2022/02/24 10:08:59;;;;;;;4.50;1.70;;;;;;;9.22;61.18;100635.13;5046510;28;20234;-76
2022/02/24 10:11:28;;;;;;;3.37;1.60;;;;;;;9.27;62.01;100631.56;5068434;28;20606;-82
2022/02/24 10:14:05;;;;;;;3.07;1.43;;;;;;;9.36;62.13;100633.25;5078541;28;20308;-82
2022/02/24 10:16:51;;;;;;;3.60;1.60;;;;;;;9.36;62.19;100622.81;5074629;28;20214;-82
2022/02/24 10:19:18;;;;;;;3.63;1.50;;;;;;;9.38;61.46;100626.25;5077489;28;20231;-82
2022/02/24 10:22:05;;;;;;;5.37;1.70;;;;;;;9.43;61.80;100636.63;5076194;28;20231;-81
2022/02/24 10:24:31;;;;;;;1.70;1.53;;;;;;;9.41;60.87;100630.56;5075439;28;20221;-80
2022/02/24 10:27:16;;;;;;;3.70;1.93;;;;;;;9.39;60.73;100634.94;5076105;28;20264;-81
2022/02/24 10:29:51;;;;;;;3.03;1.63;;;;;;;9.41;61.20;100620.16;5075876;28;20641;-80
2022/02/24 10:32:33;;;;;;;4.17;1.83;;;;;;;9.43;60.96;100616.63;5076785;28;20204;-82
2022/02/24 10:35:23;;;;;;;3.73;1.70;;;;;;;9.41;60.18;100627.97;5077241;28;20216;-80
2022/02/24 10:37:58;;;;;;;2.67;1.77;;;;;;;9.43;60.58;100627.06;5074725;28;20236;-82
2022/02/24 10:40:26;;;;;;;2.13;1.53;;;;;;;9.46;60.48;100603.59;5062891;28;20238;-82
2022/02/24 10:42:53;;;;;;;1.57;1.40;;;;;;;9.47;59.94;100601.84;5074816;28;20213;-81
2022/02/24 10:45:24;;;;;;;2.40;1.93;;;;;;;9.51;60.91;100601.81;5073492;28;20205;-80
2022/02/24 10:47:59;;;;;;;4.47;1.83;;;;;;;9.61;61.86;100553.00;5078522;28;20246;-81
2022/02/24 10:50:50;;;;;;;4.83;1.73;;;;;;;9.74;61.70;100567.63;5076870;28;20203;-79
2022/02/24 10:53:19;;;;;;;3.00;1.47;;;;;;;9.76;60.76;100571.97;5076569;28;20705;-82
2022/02/24 10:55:57;;;;;;;2.33;1.47;;;;;;;9.67;60.58;100576.41;5074108;28;20212;-81
2022/02/24 10:58:24;;;;;;;1.50;1.30;;;;;;;9.67;60.08;100570.31;5083204;28;20208;-80
2022/02/24 11:01:03;;;;;;;3.27;1.50;;;;;;;9.67;60.71;100557.28;5081923;28;20236;-80
2022/02/24 11:03:31;;;;;;;2.20;1.27;;;;;;;9.61;60.48;100539.97;5077933;28;20597;-80
2022/02/24 11:05:59;;;;;;;4.27;1.47;;;;;;;9.63;61.29;100511.28;5077463;28;20204;-82
2022/02/24 11:08:27;;;;;;;3.03;1.50;;;;;;;9.66;61.22;100503.44;5076886;28;20217;-81
2022/02/24 11:10:55;;;;;;;1.83;1.60;;;;;;;9.70;60.88;100508.59;5070688;28;20189;-84
2022/02/24 11:13:22;;;;;;;3.43;1.33;;;;;;;9.79;61.39;100498.91;5078514;28;20231;-81
2022/02/24 11:15:48;;;;;;;3.50;1.43;;;;;;;9.93;61.40;100479.56;5077912;28;20216;-82
2022/02/24 11:18:17;;;;;;;2.23;1.50;;;;;;;10.03;61.15;100484.63;5077608;28;20201;-82
2022/02/24 11:20:44;;;;;;;3.33;1.57;;;;;;;9.87;60.34;100495.31;5078247;28;20588;-80
2022/02/24 11:23:12;;;;;;;1.80;1.33;;;;;;;10.02;61.21;100467.28;5077449;28;20228;-80
2022/02/24 11:25:47;;;;;;;2.47;1.30;;;;;;;10.06;60.62;100481.97;5076583;28;20213;-81
2022/02/24 11:28:16;;;;;;;3.80;1.30;;;;;;;10.03;60.16;100488.13;5077166;28;20269;-81
2022/02/24 11:30:46;;;;;;;2.17;1.10;;;;;;;10.09;59.80;100503.66;5077775;28;20586;-81
2022/02/24 11:33:15;;;;;;;3.63;1.37;;;;;;;10.24;60.30;100492.09;5076828;28;20301;-80
2022/02/24 11:35:41;;;;;;;1.97;1.17;;;;;;;10.24;60.01;100504.28;5068538;22;20233;-79